Time;durP1;ratioP1;P1;durP2;ratioP2;P2;SDS_P1;SDS_P2;PMS_P1;PMS_P2;Temp;Humidity;BMP_temperature;BMP_pressure;BME280_temperature;BME280_humidity;BME280_pressure;Samples;Min_cycle;Max_cycle;Signal;HPM_P1;HPM_P2
2021/04/10 00:00:00;;;;;;;10.77;9.68;;;8.20;99.90;;;;;;5018584;28;20219;-37
2021/04/10 00:02:27;;;;;;;12.23;10.93;;;8.30;99.90;;;;;;5021389;28;20209;-36
2021/04/10 00:04:54;;;;;;;12.43;9.48;;;8.30;99.90;;;;;;5019035;28;20220;-37
2021/04/10 00:07:21;;;;;;;11.98;9.98;;;8.20;99.90;;;;;;5028459;28;20195;-37
2021/04/10 00:09:47;;;;;;;12.00;10.82;;;8.20;99.90;;;;;;5031317;28;20204;-35
2021/04/10 00:12:15;;;;;;;12.35;11.10;;;8.20;99.90;;;;;;5032169;28;20202;-36
2021/04/10 00:14:42;;;;;;;13.15;9.98;;;8.20;99.90;;;;;;5032393;28;20319;-36
2021/04/10 00:17:09;;;;;;;13.07;10.55;;;8.00;99.90;;;;;;5032296;28;20200;-36
2021/04/10 00:19:36;;;;;;;10.35;9.35;;;7.90;99.90;;;;;;5025393;28;20197;-36
2021/04/10 00:22:03;;;;;;;10.93;9.60;;;7.70;99.90;;;;;;5015601;28;20283;-36
2021/04/10 00:24:30;;;;;;;12.10;10.82;;;7.60;99.90;;;;;;5023863;28;20303;-37
2021/04/10 00:26:56;;;;;;;14.93;11.23;;;7.60;99.90;;;;;;5022588;28;20218;-36
2021/04/10 00:29:23;;;;;;;10.82;9.45;;;7.60;99.90;;;;;;5021396;28;20204;-35
2021/04/10 00:31:50;;;;;;;10.85;9.07;;;7.70;99.90;;;;;;5019826;28;20251;-36
2021/04/10 00:34:17;;;;;;;13.65;9.43;;;7.60;99.90;;;;;;5017743;28;20219;-37
2021/04/10 00:36:44;;;;;;;15.40;11.23;;;7.60;99.90;;;;;;5025759;28;20212;-35
2021/04/10 00:39:11;;;;;;;13.07;9.63;;;7.70;99.90;;;;;;5024149;28;20191;-37
2021/04/10 00:41:37;;;;;;;11.82;10.63;;;7.70;99.90;;;;;;5024687;28;20292;-36
2021/04/10 00:44:05;;;;;;;10.88;9.77;;;7.70;99.90;;;;;;5027247;28;20343;-36
2021/04/10 00:46:32;;;;;;;16.10;10.90;;;7.80;99.90;;;;;;5027122;28;20225;-36
2021/04/10 00:48:59;;;;;;;13.20;10.35;;;7.80;99.90;;;;;;5025476;28;20231;-36
2021/04/10 00:51:26;;;;;;;13.38;10.23;;;7.80;99.90;;;;;;5025373;28;20257;-36
2021/04/10 00:53:53;;;;;;;12.23;9.82;;;7.80;99.90;;;;;;5026289;28;20291;-37
2021/04/10 00:56:21;;;;;;;14.18;10.68;;;7.80;99.90;;;;;;5027306;28;20196;-36
2021/04/10 00:58:48;;;;;;;13.15;11.35;;;7.70;99.90;;;;;;5027984;28;20663;-36
2021/04/10 01:01:15;;;;;;;15.27;12.38;;;7.70;99.90;;;;;;5024643;28;20198;-36
2021/04/10 01:03:42;;;;;;;12.48;11.25;;;7.90;99.90;;;;;;5027951;28;20219;-36
2021/04/10 01:06:10;;;;;;;13.70;12.30;;;7.90;99.90;;;;;;5028417;28;20192;-36
2021/04/10 01:08:37;;;;;;;14.05;11.88;;;8.00;99.90;;;;;;5026497;28;20744;-36
2021/04/10 01:11:14;;;;;;;14.07;12.57;;;7.90;99.90;;;;;;5024743;28;20200;-35
2021/04/10 01:13:48;;;;;;;16.90;13.65;;;7.80;99.90;;;;;;5026455;28;20708;-36
2021/04/10 01:16:20;;;;;;;13.57;11.90;;;7.80;99.90;;;;;;5023949;28;20228;-37
2021/04/10 01:18:53;;;;;;;16.45;12.23;;;7.80;99.90;;;;;;5024219;28;20769;-36
2021/04/10 01:21:31;;;;;;;15.98;11.82;;;7.80;99.90;;;;;;5017384;28;20210;-37
2021/04/10 01:24:36;;;;;;;15.25;10.93;;;7.80;99.90;;;;;;5021231;28;20224;-38
2021/04/10 01:27:33;;;;;;;13.77;10.95;;;7.80;99.90;;;;;;5029703;28;20552;-35
2021/04/10 01:30:07;;;;;;;13.63;11.73;;;7.80;99.90;;;;;;5025463;28;20192;-35
2021/04/10 01:32:40;;;;;;;13.30;10.52;;;7.80;99.90;;;;;;5023086;28;20275;-35
2021/04/10 01:35:09;;;;;;;11.85;10.45;;;7.80;99.90;;;;;;5025319;28;20569;-35
2021/04/10 01:37:40;;;;;;;12.50;10.68;;;7.90;99.90;;;;;;5021222;28;20714;-36
2021/04/10 01:40:12;;;;;;;14.13;10.63;;;7.90;99.90;;;;;;5016158;28;20682;-36
2021/04/10 01:42:40;;;;;;;13.05;10.95;;;7.90;99.90;;;;;;5024606;28;20212;-36
2021/04/10 01:45:10;;;;;;;14.30;10.55;;;7.80;99.90;;;;;;5018032;28;20220;-35
2021/04/10 01:47:40;;;;;;;13.77;10.15;;;7.80;99.90;;;;;;5021742;28;20189;-37
2021/04/10 01:50:08;;;;;;;12.88;11.25;;;7.90;99.90;;;;;;5022395;28;20196;-37
2021/04/10 01:52:35;;;;;;;12.48;10.55;;;7.90;99.90;;;;;;5018646;28;20659;-36
2021/04/10 01:55:05;;;;;;;12.13;10.25;;;7.90;99.90;;;;;;5019157;28;20189;-37
2021/04/10 01:57:35;;;;;;;12.05;10.80;;;7.90;99.90;;;;;;5020519;28;20193;-36
2021/04/10 02:00:05;;;;;;;19.10;11.18;;;7.80;99.90;;;;;;5017220;28;20670;-36
2021/04/10 02:02:55;;;;;;;11.23;9.48;;;7.80;99.90;;;;;;5025539;28;20235;-36
2021/04/10 02:05:26;;;;;;;11.82;9.68;;;7.80;99.90;;;;;;5021190;28;20221;-36
2021/04/10 02:08:09;;;;;;;11.50;10.40;;;7.70;99.90;;;;;;5013896;28;20644;-36
2021/04/10 02:10:39;;;;;;;10.32;9.20;;;7.80;99.90;;;;;;5025741;28;20548;-36
2021/04/10 02:13:16;;;;;;;11.77;9.48;;;7.80;99.90;;;;;;5026963;28;20311;-36
2021/04/10 02:15:46;;;;;;;9.48;8.05;;;7.90;99.90;;;;;;5020202;28;20663;-36
2021/04/10 02:18:19;;;;;;;15.57;8.50;;;7.90;99.90;;;;;;5017705;28;20204;-36
2021/04/10 02:20:48;;;;;;;8.48;6.93;;;7.90;99.90;;;;;;5020100;28;20738;-36
2021/04/10 02:23:15;;;;;;;8.93;7.38;;;7.80;99.90;;;;;;5028827;28;20699;-36
2021/04/10 02:25:52;;;;;;;10.23;7.35;;;7.80;99.90;;;;;;5015822;28;20228;-35
2021/04/10 02:28:19;;;;;;;9.88;7.72;;;7.80;99.90;;;;;;5022676;28;20313;-36
2021/04/10 02:30:47;;;;;;;8.32;7.25;;;7.80;99.90;;;;;;5020329;28;20226;-35
2021/04/10 02:33:20;;;;;;;13.00;7.50;;;7.70;99.90;;;;;;5019167;28;21331;-36
2021/04/10 02:35:52;;;;;;;8.27;7.32;;;7.70;99.90;;;;;;5020631;28;20579;-38
2021/04/10 02:38:21;;;;;;;9.70;7.30;;;7.70;99.90;;;;;;5018289;28;20200;-35
2021/04/10 02:40:58;;;;;;;11.93;6.63;;;7.80;99.90;;;;;;5023342;28;20203;-35
2021/04/10 02:43:27;;;;;;;8.75;6.70;;;7.80;99.90;;;;;;5017989;28;20220;-36
2021/04/10 02:45:59;;;;;;;7.10;6.38;;;7.80;99.90;;;;;;5018750;28;20211;-36
2021/04/10 02:48:29;;;;;;;10.25;7.35;;;7.80;99.90;;;;;;5023835;28;20200;-36
2021/04/10 02:51:01;;;;;;;8.70;6.90;;;7.80;99.90;;;;;;5018129;28;20308;-37
2021/04/10 02:53:35;;;;;;;10.75;6.90;;;7.70;99.90;;;;;;5015314;28;20208;-36
2021/04/10 02:56:04;;;;;;;10.35;6.25;;;7.70;99.90;;;;;;5019672;28;20231;-35
2021/04/10 02:58:32;;;;;;;9.80;6.95;;;7.70;99.90;;;;;;5021189;28;20693;-36
2021/04/10 03:01:01;;;;;;;8.77;6.78;;;7.70;99.90;;;;;;5024968;28;20262;-36
2021/04/10 03:03:34;;;;;;;10.68;6.75;;;7.60;99.90;;;;;;5014554;28;20215;-36
2021/04/10 03:06:04;;;;;;;11.07;7.15;;;7.60;99.90;;;;;;5014821;28;20611;-34
2021/04/10 03:08:32;;;;;;;8.68;7.05;;;7.60;99.90;;;;;;5015235;28;20231;-34
2021/04/10 03:11:03;;;;;;;8.32;6.47;;;7.60;99.90;;;;;;5018932;28;20231;-37
2021/04/10 03:13:33;;;;;;;8.38;7.43;;;7.60;99.90;;;;;;5023044;28;20231;-35
2021/04/10 03:16:09;;;;;;;6.90;5.43;;;7.60;99.90;;;;;;5018514;28;20199;-34
2021/04/10 03:18:39;;;;;;;9.45;5.85;;;7.60;99.90;;;;;;5018126;28;20188;-36
2021/04/10 03:21:07;;;;;;;11.02;6.57;;;7.60;99.90;;;;;;5019356;28;20744;-35
2021/04/10 03:23:44;;;;;;;8.82;6.50;;;7.70;99.90;;;;;;5018802;28;20220;-35
2021/04/10 03:26:14;;;;;;;9.27;6.68;;;7.60;99.90;;;;;;5021856;28;20222;-35
2021/04/10 03:28:43;;;;;;;11.13;7.07;;;7.60;99.90;;;;;;5021213;28;20227;-35
2021/04/10 03:31:11;;;;;;;8.10;6.50;;;7.60;99.90;;;;;;5029889;28;20187;-35
2021/04/10 03:33:39;;;;;;;10.45;6.57;;;7.50;99.90;;;;;;5018022;28;20224;-35
2021/04/10 03:36:09;;;;;;;9.45;6.88;;;7.50;99.90;;;;;;5034560;28;20188;-34
2021/04/10 03:38:40;;;;;;;7.13;5.53;;;7.40;99.90;;;;;;5023935;28;20207;-36
2021/04/10 03:41:08;;;;;;;13.25;6.25;;;7.40;99.90;;;;;;5024281;28;20266;-36
2021/04/10 03:43:35;;;;;;;8.02;6.13;;;7.40;99.90;;;;;;5027395;28;20216;-34
2021/04/10 03:46:03;;;;;;;9.20;5.93;;;7.40;99.90;;;;;;5035292;28;20306;-35
2021/04/10 03:48:31;;;;;;;8.70;6.00;;;7.40;99.90;;;;;;5035438;28;20224;-35
2021/04/10 03:51:06;;;;;;;8.23;6.22;;;7.40;99.90;;;;;;5016122;28;20280;-34
2021/04/10 03:53:43;;;;;;;8.93;6.80;;;7.30;99.90;;;;;;5016939;28;20223;-35
2021/04/10 03:56:13;;;;;;;8.07;7.18;;;7.40;99.90;;;;;;5017125;28;20563;-35
2021/04/10 03:58:42;;;;;;;9.02;6.78;;;7.30;99.90;;;;;;5021119;28;20612;-36
2021/04/10 04:01:10;;;;;;;9.30;7.43;;;7.30;99.90;;;;;;5019573;28;20200;-35
2021/04/10 04:03:38;;;;;;;27.27;22.27;;;7.40;99.90;;;;;;5022852;28;20223;-36
2021/04/10 04:06:05;;;;;;;30.45;20.85;;;7.50;99.90;;;;;;5032796;28;20223;-35
2021/04/10 04:08:32;;;;;;;10.45;7.93;;;7.60;99.90;;;;;;5029359;28;20785;-35
2021/04/10 04:10:59;;;;;;;10.15;8.23;;;7.60;99.90;;;;;;5018289;28;20195;-35
2021/04/10 04:13:26;;;;;;;8.63;6.28;;;7.50;99.90;;;;;;5025802;28;20232;-35
2021/04/10 04:15:53;;;;;;;12.18;7.95;;;7.60;99.90;;;;;;5017536;28;20208;-34
2021/04/10 04:18:20;;;;;;;10.15;6.72;;;7.50;99.90;;;;;;5021084;28;20212;-35
2021/04/10 04:20:47;;;;;;;11.60;7.35;;;7.40;99.90;;;;;;5018458;28;20287;-36
2021/04/10 04:23:13;;;;;;;12.32;7.38;;;7.40;99.90;;;;;;5014908;28;20229;-35
2021/04/10 04:25:40;;;;;;;9.75;6.97;;;7.40;99.90;;;;;;5015303;28;20227;-34
2021/04/10 04:28:07;;;;;;;14.38;7.53;;;7.30;99.90;;;;;;5020447;28;20199;-34
2021/04/10 04:30:34;;;;;;;7.18;6.43;;;7.30;99.90;;;;;;5023416;28;20190;-35
2021/04/10 04:33:01;;;;;;;12.50;6.72;;;7.20;99.90;;;;;;5021093;28;20288;-35
2021/04/10 04:35:28;;;;;;;10.63;8.13;;;7.10;99.90;;;;;;5019576;28;20192;-34
2021/04/10 04:37:55;;;;;;;18.90;15.20;;;7.10;99.90;;;;;;5024321;28;20566;-35
2021/04/10 04:40:22;;;;;;;12.05;7.72;;;7.20;99.90;;;;;;5023516;28;20710;-35
2021/04/10 04:42:49;;;;;;;9.77;6.40;;;7.20;99.90;;;;;;5021503;28;20216;-35
2021/04/10 04:45:17;;;;;;;14.13;6.93;;;7.20;99.90;;;;;;5021966;28;20660;-34
2021/04/10 04:47:44;;;;;;;10.73;6.78;;;7.20;99.90;;;;;;5025299;28;20200;-35
2021/04/10 04:50:12;;;;;;;16.10;6.43;;;7.20;99.90;;;;;;5016768;28;20703;-36
2021/04/10 04:52:38;;;;;;;13.95;6.00;;;7.00;99.90;;;;;;5016272;28;20217;-35
2021/04/10 04:55:06;;;;;;;12.43;7.07;;;7.00;99.90;;;;;;5016588;28;20295;-37
2021/04/10 04:57:33;;;;;;;13.02;6.05;;;7.10;99.90;;;;;;5022742;28;20264;-36
2021/04/10 05:00:00;;;;;;;13.77;6.75;;;7.20;99.90;;;;;;5021456;28;20211;-36
2021/04/10 05:02:29;;;;;;;14.07;6.60;;;7.10;99.90;;;;;;5016779;28;20208;-36
2021/04/10 05:04:56;;;;;;;19.52;9.82;;;7.10;99.90;;;;;;5025216;28;20226;-35
2021/04/10 05:07:23;;;;;;;8.85;5.60;;;7.20;99.90;;;;;;5023036;28;20187;-35
2021/04/10 05:09:49;;;;;;;13.70;5.72;;;7.20;99.90;;;;;;5025143;28;20296;-34
2021/04/10 05:12:16;;;;;;;12.68;5.60;;;7.30;99.90;;;;;;5026522;28;20629;-36
2021/04/10 05:14:43;;;;;;;11.05;5.60;;;7.20;99.90;;;;;;5058919;23;20231;-43
2021/04/10 05:17:10;;;;;;;13.48;4.88;;;7.20;99.90;;;;;;5049838;28;20187;-37
2021/04/10 05:19:38;;;;;;;10.45;5.47;;;7.20;99.90;;;;;;5051763;28;20210;-37
2021/04/10 05:22:06;;;;;;;16.05;6.75;;;7.20;99.90;;;;;;5049294;28;20203;-36
2021/04/10 05:24:32;;;;;;;17.52;5.72;;;7.10;99.90;;;;;;5065861;28;20705;-38
2021/04/10 05:26:59;;;;;;;9.93;5.97;;;7.10;99.90;;;;;;5069362;28;20214;-37
2021/04/10 05:29:26;;;;;;;14.02;4.47;;;7.20;99.90;;;;;;5071341;28;20195;-38
2021/04/10 05:31:54;;;;;;;9.95;5.35;;;7.30;99.90;;;;;;5069890;28;20233;-38
2021/04/10 05:34:21;;;;;;;11.63;6.15;;;7.20;99.90;;;;;;5070108;28;20305;-38
2021/04/10 05:36:48;;;;;;;16.20;9.68;;;7.30;99.90;;;;;;5070824;28;20226;-39
2021/04/10 05:39:15;;;;;;;11.65;4.85;;;7.20;99.90;;;;;;5070309;28;20186;-38
2021/04/10 05:41:42;;;;;;;10.90;4.68;;;7.20;99.90;;;;;;5070419;28;20677;-39
2021/04/10 05:44:09;;;;;;;8.60;4.45;;;7.10;99.90;;;;;;5070268;28;20595;-38
2021/04/10 05:46:35;;;;;;;10.25;4.50;;;7.10;99.90;;;;;;5052394;28;20611;-38
2021/04/10 05:49:02;;;;;;;14.57;4.93;;;7.10;99.90;;;;;;5072011;28;20203;-38
2021/04/10 05:51:29;;;;;;;13.07;4.82;;;7.10;99.90;;;;;;5069800;28;20323;-38
2021/04/10 05:53:56;;;;;;;12.80;5.05;;;7.00;99.90;;;;;;5070694;28;20795;-38
2021/04/10 05:56:23;;;;;;;10.02;4.78;;;7.10;99.90;;;;;;5070158;28;20207;-39
2021/04/10 05:58:50;;;;;;;7.47;4.07;;;7.10;99.90;;;;;;5070669;28;20202;-38
2021/04/10 06:01:17;;;;;;;14.27;5.32;;;7.00;99.90;;;;;;5069798;28;20672;-40
2021/04/10 06:03:43;;;;;;;11.07;6.03;;;7.00;99.90;;;;;;5070986;28;20215;-39
2021/04/10 06:06:11;;;;;;;17.83;6.18;;;7.10;99.90;;;;;;5070417;28;20279;-38
2021/04/10 06:08:38;;;;;;;15.57;5.35;;;7.00;99.90;;;;;;5071912;28;20225;-39
2021/04/10 06:11:06;;;;;;;11.90;5.28;;;7.00;99.90;;;;;;5070082;28;20248;-39
2021/04/10 06:13:33;;;;;;;12.45;6.20;;;7.10;99.90;;;;;;5069911;28;20303;-39
2021/04/10 06:15:59;;;;;;;15.23;6.05;;;7.10;99.90;;;;;;5070446;28;20222;-39
2021/04/10 06:18:26;;;;;;;12.82;5.57;;;7.20;99.90;;;;;;5070156;28;20202;-38
2021/04/10 06:21:05;;;;;;;13.48;6.43;;;7.30;99.90;;;;;;5053420;28;20672;-37
2021/04/10 06:23:32;;;;;;;13.93;5.63;;;7.30;99.90;;;;;;5069153;28;20641;-38
2021/04/10 06:25:59;;;;;;;13.75;6.38;;;7.20;99.90;;;;;;5068806;28;20261;-38
2021/04/10 06:28:28;;;;;;;102.65;78.18;;;7.10;99.90;;;;;;5069943;28;20199;-38
2021/04/10 06:30:54;;;;;;;24.00;14.30;;;7.10;99.90;;;;;;5070131;28;20197;-38
2021/04/10 06:33:24;;;;;;;13.90;8.05;;;7.20;99.90;;;;;;5070482;28;20221;-39
2021/04/10 06:35:50;;;;;;;15.93;6.20;;;7.30;99.90;;;;;;5066043;28;20191;-38
2021/04/10 06:38:17;;;;;;;14.05;7.20;;;7.20;99.90;;;;;;5070772;28;20198;-38
2021/04/10 06:40:45;;;;;;;11.82;8.05;;;7.20;99.90;;;;;;5070169;28;20729;-38
2021/04/10 06:43:12;;;;;;;8.20;6.50;;;7.20;99.90;;;;;;5070283;28;20225;-38
2021/04/10 06:45:40;;;;;;;12.45;6.10;;;7.20;99.90;;;;;;5069268;28;20210;-38
2021/04/10 06:48:12;;;;;;;14.50;8.52;;;7.20;99.90;;;;;;5069955;28;20225;-38
2021/04/10 06:50:41;;;;;;;14.57;8.25;;;7.20;99.90;;;;;;5051405;28;20577;-38
2021/04/10 06:53:14;;;;;;;14.82;7.13;;;7.50;99.90;;;;;;5070171;28;20218;-40
2021/04/10 06:55:49;;;;;;;12.18;7.38;;;7.70;99.90;;;;;;5069026;28;20588;-39
2021/04/10 06:58:21;;;;;;;17.67;7.70;;;7.50;99.90;;;;;;5069050;28;20194;-37
2021/04/10 07:00:53;;;;;;;21.08;13.48;;;7.40;99.90;;;;;;5069650;28;20277;-37
2021/04/10 07:03:22;;;;;;;17.38;10.05;;;7.40;99.90;;;;;;5068610;28;20271;-38
2021/04/10 07:05:49;;;;;;;11.07;7.60;;;7.60;99.90;;;;;;5069227;28;20705;-37
2021/04/10 07:08:16;;;;;;;13.55;8.15;;;7.60;99.90;;;;;;5068286;28;20624;-37
2021/04/10 07:10:43;;;;;;;12.63;7.55;;;7.50;99.90;;;;;;5069630;28;20201;-38
2021/04/10 07:13:10;;;;;;;13.45;7.28;;;7.50;99.90;;;;;;5068166;28;20272;-37
2021/04/10 07:15:36;;;;;;;12.80;6.90;;;7.40;99.90;;;;;;5068474;28;20213;-38
2021/04/10 07:18:05;;;;;;;15.60;7.82;;;7.30;99.90;;;;;;5067198;28;20740;-38
2021/04/10 07:20:34;;;;;;;18.58;8.50;;;7.40;99.90;;;;;;5069005;28;20219;-38
2021/04/10 07:23:03;;;;;;;14.70;7.03;;;7.40;99.90;;;;;;5069034;28;20723;-38
2021/04/10 07:25:31;;;;;;;13.07;6.93;;;7.30;99.90;;;;;;5068635;28;20215;-38
2021/04/10 07:28:21;;;;;;;12.30;7.47;;;7.30;99.90;;;;;;5069133;28;20653;-38
2021/04/10 07:30:58;;;;;;;35.38;25.77;;;7.20;99.90;;;;;;5068742;28;20197;-39
2021/04/10 07:33:29;;;;;;;18.77;10.18;;;7.20;99.90;;;;;;5068339;28;20318;-37
2021/04/10 07:35:56;;;;;;;14.73;8.20;;;7.20;99.90;;;;;;5068816;28;20657;-38
2021/04/10 07:38:29;;;;;;;13.05;7.15;;;7.30;99.90;;;;;;5067834;28;20203;-38
2021/04/10 07:40:56;;;;;;;19.25;7.32;;;7.40;99.90;;;;;;5068253;28;20210;-39
2021/04/10 07:43:25;;;;;;;14.32;7.53;;;7.30;99.90;;;;;;5051113;28;20218;-39
2021/04/10 07:46:11;;;;;;;14.23;9.95;;;7.30;99.90;;;;;;5069185;28;20222;-37
2021/04/10 07:48:39;;;;;;;19.27;12.20;;;7.30;99.90;;;;;;5068900;28;20191;-39
2021/04/10 07:51:14;;;;;;;15.25;9.85;;;7.30;99.90;;;;;;5068739;28;20278;-38
2021/04/10 07:53:41;;;;;;;19.02;10.13;;;7.50;99.90;;;;;;5069173;28;20299;-37
2021/04/10 07:56:08;;;;;;;16.05;9.27;;;7.40;99.90;;;;;;5072467;28;20214;-38
2021/04/10 07:58:36;;;;;;;21.13;9.95;;;7.50;99.90;;;;;;5072908;28;20623;-37
2021/04/10 08:01:04;;;;;;;22.13;9.65;;;7.50;99.90;;;;;;5072764;28;20229;-39
2021/04/10 08:03:33;;;;;;;16.40;9.38;;;7.40;99.90;;;;;;5072552;28;20699;-37
2021/04/10 08:06:13;;;;;;;47.75;30.17;;;7.60;99.90;;;;;;5073070;28;20706;-37
2021/04/10 08:08:49;;;;;;;49.13;37.10;;;7.70;99.90;;;;;;5072180;28;20277;-37
2021/04/10 08:11:16;;;;;;;24.25;10.60;;;7.70;99.90;;;;;;5072359;28;20194;-37
2021/04/10 08:13:56;;;;;;;19.50;10.52;;;7.70;99.90;;;;;;5072802;28;20790;-37
2021/04/10 08:16:24;;;;;;;22.52;10.20;;;7.60;99.90;;;;;;5072647;28;20596;-37
2021/04/10 08:18:53;;;;;;;21.65;10.98;;;7.60;99.90;;;;;;5054945;28;20341;-39
2021/04/10 08:21:36;;;;;;;24.63;10.00;;;7.70;99.90;;;;;;5060030;28;20581;-38
2021/04/10 08:24:22;;;;;;;22.10;10.60;;;7.60;99.90;;;;;;5071521;28;20593;-39
2021/04/10 08:26:50;;;;;;;19.42;11.07;;;7.50;99.90;;;;;;5071883;28;20254;-38
2021/04/10 08:29:17;;;;;;;16.65;9.35;;;7.50;99.90;;;;;;5071495;28;20183;-37
2021/04/10 08:31:44;;;;;;;24.85;11.93;;;7.70;99.90;;;;;;5071083;28;20555;-39
2021/04/10 08:34:12;;;;;;;18.52;10.55;;;7.70;99.90;;;;;;5054241;28;20218;-38
2021/04/10 08:36:41;;;;;;;15.90;9.57;;;7.60;99.90;;;;;;5071594;28;20678;-37
2021/04/10 08:39:09;;;;;;;16.75;10.43;;;7.70;99.90;;;;;;5072144;28;20191;-37
2021/04/10 08:41:36;;;;;;;17.55;10.43;;;7.80;99.90;;;;;;5072729;28;20199;-38
2021/04/10 08:44:06;;;;;;;22.52;11.90;;;7.80;99.90;;;;;;5071460;28;20223;-39
2021/04/10 08:46:33;;;;;;;19.65;9.00;;;7.70;99.90;;;;;;5052840;28;21587;-37
2021/04/10 08:49:00;;;;;;;19.00;9.43;;;7.80;99.90;;;;;;5053412;28;20202;-38
2021/04/10 08:51:32;;;;;;;18.38;9.65;;;7.90;99.90;;;;;;5071835;28;20205;-38
2021/04/10 08:54:01;;;;;;;20.00;8.57;;;7.90;99.90;;;;;;5069804;28;20208;-38
2021/04/10 08:56:29;;;;;;;15.07;9.27;;;8.00;99.90;;;;;;5068104;28;20268;-38
2021/04/10 08:59:10;;;;;;;15.40;9.07;;;8.00;99.90;;;;;;5072826;28;20194;-38
2021/04/10 09:01:37;;;;;;;11.75;8.13;;;8.00;99.90;;;;;;5072412;28;20220;-39
2021/04/10 09:04:05;;;;;;;19.80;11.07;;;8.00;99.90;;;;;;5072179;28;20279;-39
2021/04/10 09:06:48;;;;;;;17.65;10.50;;;8.00;99.90;;;;;;5070903;28;20736;-38
2021/04/10 09:09:30;;;;;;;10.57;6.97;;;8.10;99.90;;;;;;5067319;28;20195;-39
2021/04/10 09:12:26;;;;;;;13.30;7.22;;;8.10;99.90;;;;;;5070202;28;20229;-40
2021/04/10 09:14:53;;;;;;;13.52;7.88;;;8.20;99.90;;;;;;4990176;28;20218;-39
2021/04/10 09:17:20;;;;;;;21.35;8.77;;;8.20;99.90;;;;;;5046858;28;20203;-38
2021/04/10 09:19:53;;;;;;;17.35;8.07;;;8.30;99.90;;;;;;5071516;28;20264;-39
2021/04/10 09:22:20;;;;;;;13.30;7.82;;;8.50;99.90;;;;;;5071119;28;20186;-37
2021/04/10 09:24:49;;;;;;;13.57;7.85;;;8.60;99.90;;;;;;5070843;28;20695;-38
2021/04/10 09:27:21;;;;;;;12.95;8.02;;;8.70;99.90;;;;;;5071027;28;20205;-37
2021/04/10 09:29:51;;;;;;;22.88;9.68;;;8.80;99.90;;;;;;5082291;28;20692;-38
2021/04/10 09:32:33;;;;;;;13.90;8.82;;;8.90;99.90;;;;;;5071513;28;20198;-38
2021/04/10 09:35:01;;;;;;;21.63;13.82;;;8.90;99.90;;;;;;5071106;28;20297;-38
2021/04/10 09:38:01;;;;;;;16.75;11.02;;;9.00;99.90;;;;;;5071251;28;20217;-39
2021/04/10 09:40:51;;;;;;;14.23;9.63;;;9.10;99.90;;;;;;5052320;28;20213;-38
2021/04/10 09:43:20;;;;;;;18.33;9.88;;;9.10;99.90;;;;;;5071252;28;20590;-38
2021/04/10 09:45:48;;;;;;;23.70;10.40;;;9.10;99.90;;;;;;5071279;28;20767;-38
2021/04/10 09:48:34;;;;;;;15.82;10.52;;;9.20;99.90;;;;;;5071027;28;20196;-38
2021/04/10 09:51:12;;;;;;;20.30;10.88;;;9.10;99.90;;;;;;5071131;28;20666;-39
2021/04/10 09:53:40;;;;;;;29.95;13.48;;;9.20;99.90;;;;;;5070761;28;20218;-39
2021/04/10 09:56:10;;;;;;;21.50;12.68;;;9.20;99.90;;;;;;5070341;28;20194;-38
2021/04/10 09:58:56;;;;;;;18.45;10.77;;;9.20;99.90;;;;;;5071424;28;20676;-38
2021/04/10 10:01:26;;;;;;;19.58;11.15;;;9.20;99.90;;;;;;5070900;28;20603;-38
2021/04/10 10:03:53;;;;;;;17.73;10.05;;;9.20;99.90;;;;;;5061995;28;20740;-38
2021/04/10 10:06:30;;;;;;;24.15;12.70;;;9.30;99.90;;;;;;5069857;28;20252;-37
2021/04/10 10:08:57;;;;;;;15.95;10.95;;;9.40;99.90;;;;;;5069410;28;20699;-38
2021/04/10 10:11:25;;;;;;;19.92;11.30;;;9.50;99.90;;;;;;5051119;28;20297;-38
2021/04/10 10:13:55;;;;;;;20.27;12.05;;;9.50;99.90;;;;;;5070090;28;20636;-38
2021/04/10 10:16:30;;;;;;;19.55;12.60;;;9.60;99.90;;;;;;5069764;28;20198;-38
2021/04/10 10:18:57;;;;;;;18.48;11.63;;;9.70;99.90;;;;;;5069399;28;20232;-38
2021/04/10 10:21:24;;;;;;;18.88;11.70;;;9.80;99.90;;;;;;5072391;28;20201;-38
2021/04/10 10:23:54;;;;;;;20.77;10.23;;;9.90;99.90;;;;;;5077426;28;20712;-39
2021/04/10 10:26:23;;;;;;;13.40;9.82;;;9.90;99.90;;;;;;5073404;28;20224;-37
2021/04/10 10:28:53;;;;;;;18.23;12.80;;;9.70;99.90;;;;;;5078043;28;20215;-37
2021/04/10 10:31:21;;;;;;;15.75;10.43;;;9.50;99.90;;;;;;5076607;28;20204;-37
2021/04/10 10:33:49;;;;;;;22.00;10.95;;;9.60;99.90;;;;;;5069158;28;20210;-39
2021/04/10 10:36:17;;;;;;;17.60;10.40;;;9.60;99.90;;;;;;5069925;28;20672;-38
2021/04/10 10:38:45;;;;;;;13.70;10.13;;;9.90;99.90;;;;;;5070508;28;20201;-37
2021/04/10 10:41:15;;;;;;;12.48;8.77;;;10.00;99.90;;;;;;5074579;28;20206;-37
2021/04/10 10:43:43;;;;;;;13.25;11.23;;;10.00;99.90;;;;;;5073893;28;20264;-38
2021/04/10 10:46:17;;;;;;;23.45;12.07;;;9.90;99.90;;;;;;5069044;28;20594;-37
2021/04/10 10:48:46;;;;;;;18.05;11.82;;;10.10;99.90;;;;;;5087221;23;20241;-83
2021/04/10 10:51:14;;;;;;;19.85;13.30;;;10.20;99.90;;;;;;5049965;28;20245;-86
2021/04/10 10:53:43;;;;;;;19.77;13.63;;;10.60;99.90;;;;;;5054790;28;20582;-85
2021/04/10 10:56:12;;;;;;;17.90;11.68;;;10.80;99.90;;;;;;5056752;28;20195;-87
2021/04/10 10:58:52;;;;;;;17.70;12.75;;;10.80;99.90;;;;;;5055068;28;20206;-87
2021/04/10 11:01:23;;;;;;;33.15;21.63;;;10.70;99.90;;;;;;5055545;28;20305;-86
2021/04/10 11:03:59;;;;;;;29.05;20.42;;;10.50;99.90;;;;;;5071718;23;20327;-37
2021/04/10 11:06:28;;;;;;;16.70;11.02;;;10.40;99.90;;;;;;5045997;28;20229;-36
2021/04/10 11:08:55;;;;;;;17.27;12.18;;;10.40;99.90;;;;;;5063527;28;20609;-36
2021/04/10 11:11:25;;;;;;;19.13;12.18;;;10.30;99.90;;;;;;5067197;28;20203;-36
2021/04/10 11:13:52;;;;;;;18.05;12.32;;;10.10;99.90;;;;;;5068277;28;20737;-35
2021/04/10 11:16:18;;;;;;;21.42;14.07;;;10.10;99.90;;;;;;5052764;22;20586;-33
2021/04/10 11:18:53;;;;;;;32.28;22.65;;;10.20;99.90;;;;;;5028280;28;20281;-33
2021/04/10 11:21:23;;;;;;;20.85;11.82;;;10.20;99.90;;;;;;5029535;28;20192;-33
2021/04/10 11:24:09;;;;;;;14.68;11.73;;;10.40;99.90;;;;;;5029044;28;20773;-33
2021/04/10 11:26:43;;;;;;;17.20;12.23;;;10.40;99.90;;;;;;5030321;28;20228;-34
2021/04/10 11:29:28;;;;;;;24.73;12.23;;;10.30;99.90;;;;;;5050237;28;20214;-33
2021/04/10 11:32:16;;;;;;;17.83;10.27;;;10.20;99.90;;;;;;5021530;28;20198;-34
2021/04/10 11:35:02;;;;;;;22.10;11.10;;;10.30;99.90;;;;;;5030008;28;20202;-34
2021/04/10 11:37:41;;;;;;;15.55;11.05;;;10.40;99.90;;;;;;5026002;28;20196;-34
2021/04/10 11:40:09;;;;;;;19.30;10.55;;;10.50;99.90;;;;;;5034115;28;20202;-34
2021/04/10 11:42:37;;;;;;;16.35;10.05;;;10.80;99.90;;;;;;5033747;28;20741;-34
2021/04/10 11:45:08;;;;;;;12.15;9.38;;;11.00;99.90;;;;;;5028443;28;20267;-34
2021/04/10 11:47:36;;;;;;;12.02;10.10;;;11.30;99.90;;;;;;5035118;28;20203;-34
2021/04/10 11:50:13;;;;;;;15.38;9.98;;;11.50;99.90;;;;;;5038321;28;20195;-34
2021/04/10 11:52:41;;;;;;;16.48;9.63;;;11.50;99.90;;;;;;5037793;28;20253;-34
2021/04/10 11:55:11;;;;;;;14.32;9.90;;;11.40;99.90;;;;;;5030206;28;20535;-34
2021/04/10 11:57:39;;;;;;;20.55;9.43;;;11.40;99.90;;;;;;5029488;28;20200;-34
2021/04/10 12:00:14;;;;;;;14.18;8.52;;;11.30;99.90;;;;;;5027570;28;20196;-34
2021/04/10 12:02:42;;;;;;;9.70;8.73;;;11.30;99.90;;;;;;5024277;28;20192;-34
2021/04/10 12:05:24;;;;;;;12.73;9.63;;;11.40;99.90;;;;;;5030317;28;20223;-34
2021/04/10 12:08:28;;;;;;;11.93;8.07;;;11.30;99.90;;;;;;5025444;28;20187;-34
2021/04/10 12:10:56;;;;;;;12.05;8.93;;;11.20;99.90;;;;;;4982613;28;20208;-34
2021/04/10 12:13:25;;;;;;;11.23;8.77;;;11.20;99.90;;;;;;5033479;28;20203;-34
2021/04/10 12:15:53;;;;;;;15.00;9.20;;;10.90;99.90;;;;;;5033069;28;20231;-34
2021/04/10 12:18:22;;;;;;;14.55;9.13;;;10.80;99.90;;;;;;5015595;28;20207;-34
2021/04/10 12:20:51;;;;;;;12.60;9.48;;;10.70;99.90;;;;;;5034214;28;20204;-34
2021/04/10 12:23:19;;;;;;;20.77;12.00;;;10.50;99.90;;;;;;5034132;28;20200;-34
2021/04/10 12:25:46;;;;;;;23.75;16.85;;;10.30;99.90;;;;;;5028934;28;20267;-33
2021/04/10 12:28:13;;;;;;;14.30;12.15;;;10.20;99.90;;;;;;5028944;28;20582;-34
2021/04/10 12:30:40;;;;;;;15.77;9.82;;;10.20;99.90;;;;;;5031505;28;20753;-34
2021/04/10 12:33:07;;;;;;;13.88;9.80;;;10.10;99.90;;;;;;5025354;28;20643;-34
2021/04/10 12:35:34;;;;;;;13.43;11.35;;;10.10;99.90;;;;;;5028705;28;20242;-33
2021/04/10 12:38:02;;;;;;;13.55;11.00;;;10.10;99.90;;;;;;5032406;28;20192;-34
2021/04/10 12:40:28;;;;;;;16.77;10.15;;;10.00;99.90;;;;;;5029366;28;20233;-34
2021/04/10 12:42:55;;;;;;;18.63;10.55;;;9.90;99.90;;;;;;5031992;28;20574;-34
2021/04/10 12:45:22;;;;;;;14.45;10.52;;;10.00;99.90;;;;;;5031074;28;20237;-34
2021/04/10 12:47:49;;;;;;;17.90;10.43;;;10.10;99.90;;;;;;5031144;28;20205;-34
2021/04/10 12:50:18;;;;;;;19.00;9.10;;;10.00;99.90;;;;;;5031263;28;20262;-34
2021/04/10 12:52:45;;;;;;;14.57;10.45;;;9.90;99.90;;;;;;5031647;28;20568;-34
2021/04/10 12:55:14;;;;;;;17.40;10.35;;;9.80;99.90;;;;;;5032039;28;20204;-33
2021/04/10 12:57:41;;;;;;;12.30;10.07;;;9.70;99.90;;;;;;5029587;28;20194;-34